Airport View

Enter AWOS ICAO identifier for current METAR.

ex. KFNL

KSGR 191753Z 20011KT 10SM FEW033 33/26 A2985 RMK AO2 SLP109 T03280261 10333 20244 58014

19 Jun 2019 18:47

Frequency: 118.125

Phone: 281-242-7605

Other Area AWOS: KIWS - KMCJ - KTME - KHOU

TAF KSGR 191726Z 1918/2018 19013KT P6SM SCT035 FM200300 17010KT P6SM SCT025 BKN250 FM201400 20014KT P6SM SCT020 BKN250